sensor_id;sensor_type;location;lat;lon;timestamp;P1;durP1;ratioP1;P2;durP2;ratioP2
18693;SDS011;9477;51.414;10.362;2023-04-15T00:00:37;6.13;;;5.00;;
18693;SDS011;9477;51.414;10.362;2023-04-15T00:02:41;6.37;;;5.17;;
18693;SDS011;9477;51.414;10.362;2023-04-15T00:04:44;7.10;;;4.93;;
18693;SDS011;9477;51.414;10.362;2023-04-15T00:06:51;8.83;;;5.43;;
18693;SDS011;9477;51.414;10.362;2023-04-15T00:08:56;5.53;;;5.03;;
18693;SDS011;9477;51.414;10.362;2023-04-15T00:10:59;6.03;;;5.13;;
18693;SDS011;9477;51.414;10.362;2023-04-15T00:13:06;6.53;;;5.03;;
18693;SDS011;9477;51.414;10.362;2023-04-15T00:15:10;5.90;;;4.63;;
18693;SDS011;9477;51.414;10.362;2023-04-15T00:17:12;8.03;;;5.30;;
18693;SDS011;9477;51.414;10.362;2023-04-15T00:19:15;12.87;;;6.07;;
18693;SDS011;9477;51.414;10.362;2023-04-15T00:21:19;7.80;;;5.40;;
18693;SDS011;9477;51.414;10.362;2023-04-15T00:23:22;7.53;;;4.90;;
18693;SDS011;9477;51.414;10.362;2023-04-15T00:25:26;8.90;;;6.03;;
18693;SDS011;9477;51.414;10.362;2023-04-15T00:27:29;8.43;;;5.93;;
18693;SDS011;9477;51.414;10.362;2023-04-15T00:29:32;7.30;;;5.90;;
18693;SDS011;9477;51.414;10.362;2023-04-15T00:31:35;8.07;;;6.33;;
18693;SDS011;9477;51.414;10.362;2023-04-15T00:33:38;8.63;;;6.33;;
18693;SDS011;9477;51.414;10.362;2023-04-15T00:35:41;7.27;;;5.90;;
18693;SDS011;9477;51.414;10.362;2023-04-15T00:37:44;9.30;;;6.20;;
18693;SDS011;9477;51.414;10.362;2023-04-15T00:39:47;8.17;;;6.47;;
18693;SDS011;9477;51.414;10.362;2023-04-15T00:41:51;6.90;;;6.10;;
18693;SDS011;9477;51.414;10.362;2023-04-15T00:43:54;7.77;;;6.37;;
18693;SDS011;9477;51.414;10.362;2023-04-15T00:45:59;7.87;;;6.63;;
18693;SDS011;9477;51.414;10.362;2023-04-15T00:48:04;9.27;;;6.63;;
18693;SDS011;9477;51.414;10.362;2023-04-15T00:50:07;6.50;;;5.50;;
18693;SDS011;9477;51.414;10.362;2023-04-15T00:52:12;8.63;;;6.83;;
18693;SDS011;9477;51.414;10.362;2023-04-15T00:54:14;8.10;;;7.20;;
18693;SDS011;9477;51.414;10.362;2023-04-15T00:56:18;10.83;;;6.50;;
18693;SDS011;9477;51.414;10.362;2023-04-15T00:58:26;7.63;;;6.43;;
18693;SDS011;9477;51.414;10.362;2023-04-15T01:00:29;8.83;;;6.73;;
18693;SDS011;9477;51.414;10.362;2023-04-15T01:02:32;9.50;;;6.77;;
18693;SDS011;9477;51.414;10.362;2023-04-15T01:04:37;9.73;;;6.93;;
18693;SDS011;9477;51.414;10.362;2023-04-15T01:06:39;9.33;;;7.27;;
18693;SDS011;9477;51.414;10.362;2023-04-15T01:08:42;8.83;;;7.47;;
18693;SDS011;9477;51.414;10.362;2023-04-15T01:10:45;10.43;;;8.07;;
18693;SDS011;9477;51.414;10.362;2023-04-15T01:12:48;9.53;;;6.93;;
18693;SDS011;9477;51.414;10.362;2023-04-15T01:14:54;10.23;;;7.50;;
18693;SDS011;9477;51.414;10.362;2023-04-15T01:16:57;11.73;;;8.20;;
18693;SDS011;9477;51.414;10.362;2023-04-15T01:19:00;11.37;;;8.67;;
18693;SDS011;9477;51.414;10.362;2023-04-15T01:21:04;9.60;;;7.90;;
18693;SDS011;9477;51.414;10.362;2023-04-15T01:23:10;11.90;;;8.50;;
18693;SDS011;9477;51.414;10.362;2023-04-15T01:25:16;11.20;;;7.93;;
18693;SDS011;9477;51.414;10.362;2023-04-15T01:27:22;10.83;;;8.33;;
18693;SDS011;9477;51.414;10.362;2023-04-15T01:29:26;9.43;;;8.43;;
18693;SDS011;9477;51.414;10.362;2023-04-15T01:31:29;9.67;;;8.00;;
18693;SDS011;9477;51.414;10.362;2023-04-15T01:33:32;11.33;;;8.63;;
18693;SDS011;9477;51.414;10.362;2023-04-15T01:35:35;12.00;;;8.73;;
18693;SDS011;9477;51.414;10.362;2023-04-15T01:37:38;10.80;;;8.50;;
18693;SDS011;9477;51.414;10.362;2023-04-15T01:39:42;9.60;;;7.87;;
18693;SDS011;9477;51.414;10.362;2023-04-15T01:41:46;11.53;;;8.97;;
18693;SDS011;9477;51.414;10.362;2023-04-15T01:43:50;11.67;;;8.50;;
18693;SDS011;9477;51.414;10.362;2023-04-15T01:45:53;12.87;;;8.97;;
18693;SDS011;9477;51.414;10.362;2023-04-15T01:47:57;11.80;;;9.43;;
18693;SDS011;9477;51.414;10.362;2023-04-15T01:50:00;13.23;;;10.00;;
18693;SDS011;9477;51.414;10.362;2023-04-15T01:52:02;10.77;;;9.13;;
18693;SDS011;9477;51.414;10.362;2023-04-15T01:54:05;13.00;;;8.93;;
18693;SDS011;9477;51.414;10.362;2023-04-15T01:56:08;15.87;;;9.47;;
18693;SDS011;9477;51.414;10.362;2023-04-15T01:58:12;12.70;;;9.53;;
18693;SDS011;9477;51.414;10.362;2023-04-15T02:00:16;13.47;;;9.60;;
18693;SDS011;9477;51.414;10.362;2023-04-15T02:02:19;10.90;;;8.20;;
18693;SDS011;9477;51.414;10.362;2023-04-15T02:04:22;11.83;;;9.67;;
18693;SDS011;9477;51.414;10.362;2023-04-15T02:06:25;11.87;;;9.83;;
18693;SDS011;9477;51.414;10.362;2023-04-15T02:08:29;12.93;;;10.00;;
18693;SDS011;9477;51.414;10.362;2023-04-15T02:10:32;13.17;;;10.40;;
18693;SDS011;9477;51.414;10.362;2023-04-15T02:12:35;13.23;;;10.27;;
18693;SDS011;9477;51.414;10.362;2023-04-15T02:14:38;13.63;;;11.03;;
18693;SDS011;9477;51.414;10.362;2023-04-15T02:16:42;14.40;;;9.73;;
18693;SDS011;9477;51.414;10.362;2023-04-15T02:18:46;14.90;;;10.57;;
18693;SDS011;9477;51.414;10.362;2023-04-15T02:20:50;13.80;;;10.63;;
18693;SDS011;9477;51.414;10.362;2023-04-15T02:22:53;11.77;;;9.17;;
18693;SDS011;9477;51.414;10.362;2023-04-15T02:24:56;13.17;;;10.83;;
18693;SDS011;9477;51.414;10.362;2023-04-15T02:26:59;12.90;;;10.57;;
18693;SDS011;9477;51.414;10.362;2023-04-15T02:29:04;13.20;;;10.10;;
18693;SDS011;9477;51.414;10.362;2023-04-15T02:31:07;13.27;;;10.40;;
18693;SDS011;9477;51.414;10.362;2023-04-15T02:33:11;14.27;;;11.33;;
18693;SDS011;9477;51.414;10.362;2023-04-15T02:35:14;11.83;;;10.07;;
18693;SDS011;9477;51.414;10.362;2023-04-15T02:37:19;14.23;;;10.03;;
18693;SDS011;9477;51.414;10.362;2023-04-15T02:39:22;13.73;;;8.90;;
18693;SDS011;9477;51.414;10.362;2023-04-15T02:41:25;12.50;;;8.93;;
18693;SDS011;9477;51.414;10.362;2023-04-15T02:43:28;12.20;;;9.53;;
18693;SDS011;9477;51.414;10.362;2023-04-15T02:45:31;12.37;;;7.97;;
18693;SDS011;9477;51.414;10.362;2023-04-15T02:47:35;15.77;;;10.87;;
18693;SDS011;9477;51.414;10.362;2023-04-15T02:49:41;13.40;;;10.73;;
18693;SDS011;9477;51.414;10.362;2023-04-15T02:51:44;14.90;;;10.70;;
18693;SDS011;9477;51.414;10.362;2023-04-15T02:53:49;15.90;;;10.77;;
18693;SDS011;9477;51.414;10.362;2023-04-15T02:55:52;15.63;;;11.57;;
18693;SDS011;9477;51.414;10.362;2023-04-15T02:57:55;15.50;;;11.23;;
18693;SDS011;9477;51.414;10.362;2023-04-15T03:00:00;12.17;;;10.40;;
18693;SDS011;9477;51.414;10.362;2023-04-15T03:02:05;12.53;;;10.20;;
18693;SDS011;9477;51.414;10.362;2023-04-15T03:04:08;17.17;;;11.57;;
18693;SDS011;9477;51.414;10.362;2023-04-15T03:06:13;12.27;;;9.83;;
18693;SDS011;9477;51.414;10.362;2023-04-15T03:08:16;13.90;;;11.70;;
18693;SDS011;9477;51.414;10.362;2023-04-15T03:10:19;15.10;;;11.03;;
18693;SDS011;9477;51.414;10.362;2023-04-15T03:12:22;14.47;;;10.50;;
18693;SDS011;9477;51.414;10.362;2023-04-15T03:14:25;13.00;;;10.00;;
18693;SDS011;9477;51.414;10.362;2023-04-15T03:16:28;14.70;;;10.63;;
18693;SDS011;9477;51.414;10.362;2023-04-15T03:18:31;14.57;;;9.47;;
18693;SDS011;9477;51.414;10.362;2023-04-15T03:20:34;12.90;;;10.50;;
18693;SDS011;9477;51.414;10.362;2023-04-15T03:22:38;13.30;;;10.77;;
18693;SDS011;9477;51.414;10.362;2023-04-15T03:24:41;11.57;;;7.83;;
18693;SDS011;9477;51.414;10.362;2023-04-15T03:26:45;14.60;;;10.63;;
18693;SDS011;9477;51.414;10.362;2023-04-15T03:28:48;13.10;;;10.57;;
18693;SDS011;9477;51.414;10.362;2023-04-15T03:30:51;13.43;;;10.33;;
18693;SDS011;9477;51.414;10.362;2023-04-15T03:32:54;15.87;;;11.13;;
18693;SDS011;9477;51.414;10.362;2023-04-15T03:34:57;12.23;;;9.83;;
18693;SDS011;9477;51.414;10.362;2023-04-15T03:37:00;15.67;;;11.57;;
18693;SDS011;9477;51.414;10.362;2023-04-15T03:39:04;14.40;;;8.80;;
18693;SDS011;9477;51.414;10.362;2023-04-15T03:41:08;13.60;;;10.70;;
18693;SDS011;9477;51.414;10.362;2023-04-15T03:43:11;12.47;;;9.67;;
18693;SDS011;9477;51.414;10.362;2023-04-15T03:45:13;12.70;;;10.00;;
18693;SDS011;9477;51.414;10.362;2023-04-15T03:47:16;16.67;;;12.37;;
18693;SDS011;9477;51.414;10.362;2023-04-15T03:49:19;14.50;;;11.33;;
18693;SDS011;9477;51.414;10.362;2023-04-15T03:51:23;12.50;;;9.83;;
18693;SDS011;9477;51.414;10.362;2023-04-15T03:53:26;15.87;;;10.50;;
18693;SDS011;9477;51.414;10.362;2023-04-15T03:55:30;12.17;;;9.73;;
18693;SDS011;9477;51.414;10.362;2023-04-15T03:57:33;14.43;;;10.27;;
18693;SDS011;9477;51.414;10.362;2023-04-15T03:59:39;18.67;;;12.27;;
18693;SDS011;9477;51.414;10.362;2023-04-15T04:01:42;14.80;;;11.10;;
18693;SDS011;9477;51.414;10.362;2023-04-15T04:03:45;15.67;;;11.87;;
18693;SDS011;9477;51.414;10.362;2023-04-15T04:05:48;14.43;;;11.00;;
18693;SDS011;9477;51.414;10.362;2023-04-15T04:07:54;14.83;;;10.70;;
18693;SDS011;9477;51.414;10.362;2023-04-15T04:09:57;14.13;;;11.30;;
18693;SDS011;9477;51.414;10.362;2023-04-15T04:12:01;14.40;;;10.63;;
18693;SDS011;9477;51.414;10.362;2023-04-15T04:14:04;17.17;;;10.90;;
18693;SDS011;9477;51.414;10.362;2023-04-15T04:16:07;14.33;;;10.63;;
18693;SDS011;9477;51.414;10.362;2023-04-15T04:18:10;16.70;;;12.10;;
18693;SDS011;9477;51.414;10.362;2023-04-15T04:20:14;16.53;;;11.80;;
18693;SDS011;9477;51.414;10.362;2023-04-15T04:22:16;14.80;;;11.27;;
18693;SDS011;9477;51.414;10.362;2023-04-15T04:24:23;18.53;;;12.40;;
18693;SDS011;9477;51.414;10.362;2023-04-15T04:26:27;16.73;;;12.20;;
18693;SDS011;9477;51.414;10.362;2023-04-15T04:28:31;17.90;;;12.50;;
18693;SDS011;9477;51.414;10.362;2023-04-15T04:30:34;20.47;;;13.90;;
18693;SDS011;9477;51.414;10.362;2023-04-15T04:32:37;16.33;;;11.93;;
18693;SDS011;9477;51.414;10.362;2023-04-15T04:34:40;22.07;;;14.47;;
18693;SDS011;9477;51.414;10.362;2023-04-15T04:36:43;18.47;;;13.30;;
18693;SDS011;9477;51.414;10.362;2023-04-15T04:38:46;15.57;;;11.20;;
18693;SDS011;9477;51.414;10.362;2023-04-15T04:40:49;18.20;;;11.93;;
18693;SDS011;9477;51.414;10.362;2023-04-15T04:42:51;20.30;;;13.30;;
18693;SDS011;9477;51.414;10.362;2023-04-15T04:44:56;23.07;;;12.47;;
18693;SDS011;9477;51.414;10.362;2023-04-15T04:46:58;20.40;;;13.63;;
18693;SDS011;9477;51.414;10.362;2023-04-15T04:49:01;16.07;;;11.50;;
18693;SDS011;9477;51.414;10.362;2023-04-15T04:51:05;19.50;;;13.13;;
18693;SDS011;9477;51.414;10.362;2023-04-15T04:53:08;20.90;;;13.37;;
18693;SDS011;9477;51.414;10.362;2023-04-15T04:55:11;21.33;;;14.50;;
18693;SDS011;9477;51.414;10.362;2023-04-15T04:57:14;22.37;;;13.23;;
18693;SDS011;9477;51.414;10.362;2023-04-15T04:59:16;17.43;;;12.30;;
18693;SDS011;9477;51.414;10.362;2023-04-15T05:01:23;21.37;;;13.50;;
18693;SDS011;9477;51.414;10.362;2023-04-15T05:03:26;22.40;;;13.70;;
18693;SDS011;9477;51.414;10.362;2023-04-15T05:05:30;21.43;;;14.07;;
18693;SDS011;9477;51.414;10.362;2023-04-15T05:07:33;18.33;;;12.67;;
18693;SDS011;9477;51.414;10.362;2023-04-15T05:09:36;18.67;;;13.00;;
18693;SDS011;9477;51.414;10.362;2023-04-15T05:11:39;20.40;;;13.17;;
18693;SDS011;9477;51.414;10.362;2023-04-15T05:13:42;19.00;;;12.53;;
18693;SDS011;9477;51.414;10.362;2023-04-15T05:15:45;21.20;;;14.07;;
18693;SDS011;9477;51.414;10.362;2023-04-15T05:17:49;19.47;;;13.23;;
18693;SDS011;9477;51.414;10.362;2023-04-15T05:19:52;20.87;;;12.97;;
18693;SDS011;9477;51.414;10.362;2023-04-15T05:21:55;26.97;;;16.57;;
18693;SDS011;9477;51.414;10.362;2023-04-15T05:23:58;22.10;;;15.13;;
18693;SDS011;9477;51.414;10.362;2023-04-15T05:26:01;21.83;;;13.73;;
18693;SDS011;9477;51.414;10.362;2023-04-15T05:28:05;24.83;;;14.87;;
18693;SDS011;9477;51.414;10.362;2023-04-15T05:30:08;20.97;;;12.73;;
18693;SDS011;9477;51.414;10.362;2023-04-15T05:32:13;24.90;;;14.83;;
18693;SDS011;9477;51.414;10.362;2023-04-15T05:34:19;24.60;;;16.17;;
18693;SDS011;9477;51.414;10.362;2023-04-15T05:36:21;20.97;;;13.17;;
18693;SDS011;9477;51.414;10.362;2023-04-15T05:38:26;25.40;;;15.50;;
18693;SDS011;9477;51.414;10.362;2023-04-15T05:40:29;18.93;;;13.33;;
18693;SDS011;9477;51.414;10.362;2023-04-15T05:42:32;22.87;;;15.07;;
18693;SDS011;9477;51.414;10.362;2023-04-15T05:44:36;20.33;;;14.27;;
18693;SDS011;9477;51.414;10.362;2023-04-15T05:46:39;22.77;;;12.33;;
18693;SDS011;9477;51.414;10.362;2023-04-15T05:48:42;28.37;;;17.63;;
18693;SDS011;9477;51.414;10.362;2023-04-15T05:50:46;23.00;;;14.40;;
18693;SDS011;9477;51.414;10.362;2023-04-15T05:52:51;24.10;;;15.47;;
18693;SDS011;9477;51.414;10.362;2023-04-15T05:54:54;29.53;;;17.63;;
18693;SDS011;9477;51.414;10.362;2023-04-15T05:56:57;23.40;;;15.03;;
18693;SDS011;9477;51.414;10.362;2023-04-15T05:59:00;19.93;;;13.87;;
18693;SDS011;9477;51.414;10.362;2023-04-15T06:01:04;25.63;;;16.27;;
18693;SDS011;9477;51.414;10.362;2023-04-15T06:03:07;22.40;;;14.50;;
18693;SDS011;9477;51.414;10.362;2023-04-15T06:05:11;22.20;;;14.17;;
18693;SDS011;9477;51.414;10.362;2023-04-15T06:07:16;21.40;;;12.47;;
18693;SDS011;9477;51.414;10.362;2023-04-15T06:09:19;20.13;;;13.17;;
18693;SDS011;9477;51.414;10.362;2023-04-15T06:11:22;24.77;;;14.77;;
18693;SDS011;9477;51.414;10.362;2023-04-15T06:13:25;19.87;;;13.03;;
18693;SDS011;9477;51.414;10.362;2023-04-15T06:15:28;16.53;;;11.30;;
18693;SDS011;9477;51.414;10.362;2023-04-15T06:17:31;18.67;;;12.43;;
18693;SDS011;9477;51.414;10.362;2023-04-15T06:19:34;20.13;;;12.70;;
18693;SDS011;9477;51.414;10.362;2023-04-15T06:21:37;22.20;;;13.60;;
18693;SDS011;9477;51.414;10.362;2023-04-15T06:23:42;12.77;;;8.77;;
18693;SDS011;9477;51.414;10.362;2023-04-15T06:25:44;19.53;;;12.17;;
18693;SDS011;9477;51.414;10.362;2023-04-15T06:27:48;14.00;;;8.60;;
18693;SDS011;9477;51.414;10.362;2023-04-15T06:29:52;19.33;;;11.57;;
18693;SDS011;9477;51.414;10.362;2023-04-15T06:31:56;22.17;;;12.77;;
18693;SDS011;9477;51.414;10.362;2023-04-15T06:33:58;12.50;;;7.57;;
18693;SDS011;9477;51.414;10.362;2023-04-15T06:36:02;19.90;;;12.80;;
18693;SDS011;9477;51.414;10.362;2023-04-15T06:38:05;16.90;;;10.07;;
18693;SDS011;9477;51.414;10.362;2023-04-15T06:40:09;14.10;;;9.93;;
18693;SDS011;9477;51.414;10.362;2023-04-15T06:42:13;14.70;;;10.47;;
18693;SDS011;9477;51.414;10.362;2023-04-15T06:44:18;17.43;;;10.70;;
18693;SDS011;9477;51.414;10.362;2023-04-15T06:46:21;14.73;;;9.73;;
18693;SDS011;9477;51.414;10.362;2023-04-15T06:48:24;13.90;;;9.73;;
18693;SDS011;9477;51.414;10.362;2023-04-15T06:50:29;17.97;;;10.60;;
18693;SDS011;9477;51.414;10.362;2023-04-15T06:52:33;18.47;;;10.63;;
18693;SDS011;9477;51.414;10.362;2023-04-15T06:54:35;16.63;;;10.07;;
18693;SDS011;9477;51.414;10.362;2023-04-15T06:56:40;12.50;;;9.23;;
18693;SDS011;9477;51.414;10.362;2023-04-15T06:58:43;14.17;;;9.80;;
18693;SDS011;9477;51.414;10.362;2023-04-15T07:00:48;20.63;;;11.40;;
18693;SDS011;9477;51.414;10.362;2023-04-15T07:02:52;14.70;;;10.20;;
18693;SDS011;9477;51.414;10.362;2023-04-15T07:04:55;16.43;;;10.97;;
18693;SDS011;9477;51.414;10.362;2023-04-15T07:06:58;14.83;;;10.20;;
18693;SDS011;9477;51.414;10.362;2023-04-15T07:09:02;17.17;;;11.00;;
18693;SDS011;9477;51.414;10.362;2023-04-15T07:11:06;13.00;;;9.33;;
18693;SDS011;9477;51.414;10.362;2023-04-15T07:13:10;17.40;;;11.13;;
18693;SDS011;9477;51.414;10.362;2023-04-15T07:15:15;11.40;;;8.80;;
18693;SDS011;9477;51.414;10.362;2023-04-15T07:17:18;14.70;;;10.53;;
18693;SDS011;9477;51.414;10.362;2023-04-15T07:19:21;17.47;;;10.67;;
18693;SDS011;9477;51.414;10.362;2023-04-15T07:21:24;15.43;;;10.13;;
18693;SDS011;9477;51.414;10.362;2023-04-15T07:23:27;17.17;;;11.83;;
18693;SDS011;9477;51.414;10.362;2023-04-15T07:25:31;17.23;;;11.43;;
18693;SDS011;9477;51.414;10.362;2023-04-15T07:27:34;17.07;;;11.27;;
18693;SDS011;9477;51.414;10.362;2023-04-15T07:29:39;15.33;;;9.20;;
18693;SDS011;9477;51.414;10.362;2023-04-15T07:31:42;19.20;;;11.83;;
18693;SDS011;9477;51.414;10.362;2023-04-15T07:33:45;14.43;;;10.03;;
18693;SDS011;9477;51.414;10.362;2023-04-15T07:35:49;15.70;;;9.80;;
18693;SDS011;9477;51.414;10.362;2023-04-15T07:37:52;14.70;;;10.23;;
18693;SDS011;9477;51.414;10.362;2023-04-15T07:39:57;13.10;;;9.77;;
18693;SDS011;9477;51.414;10.362;2023-04-15T07:41:59;16.93;;;11.50;;
18693;SDS011;9477;51.414;10.362;2023-04-15T07:44:03;19.57;;;11.90;;
18693;SDS011;9477;51.414;10.362;2023-04-15T07:46:07;18.40;;;11.50;;
18693;SDS011;9477;51.414;10.362;2023-04-15T07:48:11;15.83;;;10.90;;
18693;SDS011;9477;51.414;10.362;2023-04-15T07:50:14;19.30;;;12.00;;
18693;SDS011;9477;51.414;10.362;2023-04-15T07:52:17;16.30;;;10.97;;
18693;SDS011;9477;51.414;10.362;2023-04-15T07:54:20;18.20;;;10.23;;
18693;SDS011;9477;51.414;10.362;2023-04-15T07:56:23;13.47;;;8.87;;
18693;SDS011;9477;51.414;10.362;2023-04-15T07:58:26;17.87;;;11.53;;
18693;SDS011;9477;51.414;10.362;2023-04-15T08:00:29;16.77;;;11.27;;
18693;SDS011;9477;51.414;10.362;2023-04-15T08:02:33;18.40;;;11.07;;
18693;SDS011;9477;51.414;10.362;2023-04-15T08:04:40;13.47;;;9.00;;
18693;SDS011;9477;51.414;10.362;2023-04-15T08:06:43;14.93;;;10.47;;
18693;SDS011;9477;51.414;10.362;2023-04-15T08:08:48;13.67;;;8.97;;
18693;SDS011;9477;51.414;10.362;2023-04-15T08:10:51;11.50;;;6.93;;
18693;SDS011;9477;51.414;10.362;2023-04-15T08:12:54;16.70;;;10.87;;
18693;SDS011;9477;51.414;10.362;2023-04-15T08:14:57;13.20;;;9.73;;
18693;SDS011;9477;51.414;10.362;2023-04-15T08:17:01;12.10;;;7.77;;
18693;SDS011;9477;51.414;10.362;2023-04-15T08:19:05;17.73;;;11.17;;
18693;SDS011;9477;51.414;10.362;2023-04-15T08:21:08;12.90;;;8.63;;
18693;SDS011;9477;51.414;10.362;2023-04-15T08:23:12;15.70;;;10.50;;
18693;SDS011;9477;51.414;10.362;2023-04-15T08:25:15;15.53;;;11.13;;
18693;SDS011;9477;51.414;10.362;2023-04-15T08:27:18;16.30;;;10.57;;
18693;SDS011;9477;51.414;10.362;2023-04-15T08:29:21;17.27;;;10.87;;
18693;SDS011;9477;51.414;10.362;2023-04-15T08:31:25;11.60;;;8.03;;
18693;SDS011;9477;51.414;10.362;2023-04-15T08:33:30;14.30;;;9.60;;
18693;SDS011;9477;51.414;10.362;2023-04-15T08:35:35;16.43;;;9.63;;
18693;SDS011;9477;51.414;10.362;2023-04-15T08:37:39;13.00;;;8.73;;
18693;SDS011;9477;51.414;10.362;2023-04-15T08:39:42;15.73;;;9.40;;
18693;SDS011;9477;51.414;10.362;2023-04-15T08:41:45;13.20;;;9.57;;
18693;SDS011;9477;51.414;10.362;2023-04-15T08:43:52;12.97;;;8.97;;
18693;SDS011;9477;51.414;10.362;2023-04-15T08:45:58;12.30;;;8.60;;
18693;SDS011;9477;51.414;10.362;2023-04-15T08:48:02;11.37;;;7.57;;
18693;SDS011;9477;51.414;10.362;2023-04-15T08:50:07;10.33;;;7.37;;
18693;SDS011;9477;51.414;10.362;2023-04-15T08:52:14;12.47;;;8.27;;
18693;SDS011;9477;51.414;10.362;2023-04-15T08:54:18;13.33;;;9.13;;
18693;SDS011;9477;51.414;10.362;2023-04-15T08:56:22;12.03;;;8.33;;
18693;SDS011;9477;51.414;10.362;2023-04-15T08:58:26;9.37;;;7.17;;
18693;SDS011;9477;51.414;10.362;2023-04-15T09:00:30;8.73;;;5.80;;
18693;SDS011;9477;51.414;10.362;2023-04-15T09:02:34;10.37;;;7.77;;
18693;SDS011;9477;51.414;10.362;2023-04-15T09:04:37;10.03;;;7.63;;
18693;SDS011;9477;51.414;10.362;2023-04-15T09:06:41;12.33;;;8.10;;
18693;SDS011;9477;51.414;10.362;2023-04-15T09:08:45;9.50;;;7.10;;
18693;SDS011;9477;51.414;10.362;2023-04-15T09:10:49;9.03;;;6.63;;
18693;SDS011;9477;51.414;10.362;2023-04-15T09:12:52;11.47;;;7.57;;
18693;SDS011;9477;51.414;10.362;2023-04-15T09:14:56;14.17;;;7.97;;
18693;SDS011;9477;51.414;10.362;2023-04-15T09:16:59;11.53;;;8.17;;
18693;SDS011;9477;51.414;10.362;2023-04-15T09:19:11;12.63;;;7.57;;
18693;SDS011;9477;51.414;10.362;2023-04-15T09:21:23;9.50;;;6.50;;
18693;SDS011;9477;51.414;10.362;2023-04-15T09:23:26;9.03;;;5.83;;
18693;SDS011;9477;51.414;10.362;2023-04-15T09:25:30;7.20;;;6.20;;
18693;SDS011;9477;51.414;10.362;2023-04-15T09:27:35;10.53;;;7.20;;
18693;SDS011;9477;51.414;10.362;2023-04-15T09:29:41;11.63;;;7.63;;
18693;SDS011;9477;51.414;10.362;2023-04-15T09:31:43;11.57;;;6.63;;
18693;SDS011;9477;51.414;10.362;2023-04-15T09:33:53;11.27;;;7.50;;
18693;SDS011;9477;51.414;10.362;2023-04-15T09:35:58;10.20;;;7.10;;
18693;SDS011;9477;51.414;10.362;2023-04-15T09:38:02;11.10;;;6.77;;
18693;SDS011;9477;51.414;10.362;2023-04-15T09:40:07;9.07;;;6.70;;
18693;SDS011;9477;51.414;10.362;2023-04-15T09:42:12;9.73;;;6.93;;
18693;SDS011;9477;51.414;10.362;2023-04-15T09:44:22;9.57;;;6.57;;
18693;SDS011;9477;51.414;10.362;2023-04-15T09:46:40;7.53;;;6.23;;
18693;SDS011;9477;51.414;10.362;2023-04-15T09:48:45;10.97;;;7.13;;
18693;SDS011;9477;51.414;10.362;2023-04-15T09:50:48;7.83;;;5.80;;
18693;SDS011;9477;51.414;10.362;2023-04-15T09:52:54;10.43;;;6.93;;
18693;SDS011;9477;51.414;10.362;2023-04-15T09:54:57;9.10;;;6.70;;
18693;SDS011;9477;51.414;10.362;2023-04-15T09:57:05;8.80;;;6.20;;
18693;SDS011;9477;51.414;10.362;2023-04-15T09:59:10;8.00;;;5.13;;
18693;SDS011;9477;51.414;10.362;2023-04-15T10:01:13;9.13;;;6.00;;
18693;SDS011;9477;51.414;10.362;2023-04-15T10:03:17;10.60;;;6.43;;
18693;SDS011;9477;51.414;10.362;2023-04-15T10:05:22;7.53;;;6.03;;
18693;SDS011;9477;51.414;10.362;2023-04-15T10:07:25;7.73;;;5.47;;
18693;SDS011;9477;51.414;10.362;2023-04-15T10:09:29;7.67;;;6.30;;
18693;SDS011;9477;51.414;10.362;2023-04-15T10:11:33;10.23;;;6.47;;
18693;SDS011;9477;51.414;10.362;2023-04-15T10:13:37;7.20;;;5.87;;
18693;SDS011;9477;51.414;10.362;2023-04-15T10:15:47;11.27;;;7.67;;
18693;SDS011;9477;51.414;10.362;2023-04-15T10:17:53;9.83;;;7.77;;
18693;SDS011;9477;51.414;10.362;2023-04-15T10:20:02;8.57;;;6.37;;
18693;SDS011;9477;51.414;10.362;2023-04-15T10:22:06;8.97;;;6.60;;
18693;SDS011;9477;51.414;10.362;2023-04-15T10:24:09;9.97;;;6.70;;
18693;SDS011;9477;51.414;10.362;2023-04-15T10:26:12;11.73;;;7.87;;
18693;SDS011;9477;51.414;10.362;2023-04-15T10:28:17;7.47;;;6.03;;
18693;SDS011;9477;51.414;10.362;2023-04-15T10:30:22;7.80;;;6.03;;
18693;SDS011;9477;51.414;10.362;2023-04-15T10:32:27;9.23;;;7.13;;
18693;SDS011;9477;51.414;10.362;2023-04-15T10:34:31;9.80;;;6.77;;
18693;SDS011;9477;51.414;10.362;2023-04-15T10:36:34;9.87;;;7.00;;
18693;SDS011;9477;51.414;10.362;2023-04-15T10:38:40;15.30;;;6.70;;
18693;SDS011;9477;51.414;10.362;2023-04-15T10:40:45;13.43;;;7.40;;
18693;SDS011;9477;51.414;10.362;2023-04-15T10:42:48;8.83;;;6.90;;
18693;SDS011;9477;51.414;10.362;2023-04-15T10:44:51;9.93;;;6.53;;
18693;SDS011;9477;51.414;10.362;2023-04-15T10:46:58;10.80;;;6.70;;
18693;SDS011;9477;51.414;10.362;2023-04-15T10:49:07;6.47;;;5.57;;
18693;SDS011;9477;51.414;10.362;2023-04-15T10:51:12;9.07;;;6.83;;
18693;SDS011;9477;51.414;10.362;2023-04-15T10:53:20;7.00;;;5.53;;
18693;SDS011;9477;51.414;10.362;2023-04-15T10:55:30;9.57;;;7.53;;
18693;SDS011;9477;51.414;10.362;2023-04-15T10:57:36;10.53;;;6.93;;
18693;SDS011;9477;51.414;10.362;2023-04-15T10:59:59;8.60;;;6.67;;
18693;SDS011;9477;51.414;10.362;2023-04-15T11:02:06;10.13;;;7.60;;
18693;SDS011;9477;51.414;10.362;2023-04-15T11:04:13;9.00;;;6.50;;
18693;SDS011;9477;51.414;10.362;2023-04-15T11:06:17;10.23;;;7.53;;
18693;SDS011;9477;51.414;10.362;2023-04-15T11:08:20;7.33;;;5.43;;
18693;SDS011;9477;51.414;10.362;2023-04-15T11:10:57;12.17;;;7.40;;
18693;SDS011;9477;51.414;10.362;2023-04-15T11:13:00;13.37;;;7.03;;
18693;SDS011;9477;51.414;10.362;2023-04-15T11:17:30;13.50;;;6.60;;
18693;SDS011;9477;51.414;10.362;2023-04-15T11:19:36;14.23;;;6.07;;
18693;SDS011;9477;51.414;10.362;2023-04-15T11:21:39;12.10;;;6.93;;
18693;SDS011;9477;51.414;10.362;2023-04-15T11:23:42;33.03;;;8.17;;
18693;SDS011;9477;51.414;10.362;2023-04-15T11:25:48;7.07;;;5.67;;
18693;SDS011;9477;51.414;10.362;2023-04-15T11:27:51;12.40;;;6.30;;
18693;SDS011;9477;51.414;10.362;2023-04-15T11:29:55;15.13;;;8.20;;
18693;SDS011;9477;51.414;10.362;2023-04-15T11:32:05;9.20;;;7.03;;
18693;SDS011;9477;51.414;10.362;2023-04-15T11:34:08;10.37;;;7.17;;
18693;SDS011;9477;51.414;10.362;2023-04-15T11:36:11;20.63;;;9.10;;
18693;SDS011;9477;51.414;10.362;2023-04-15T11:38:14;13.43;;;7.03;;
18693;SDS011;9477;51.414;10.362;2023-04-15T11:40:21;23.80;;;6.60;;
18693;SDS011;9477;51.414;10.362;2023-04-15T11:42:26;12.30;;;7.60;;
18693;SDS011;9477;51.414;10.362;2023-04-15T11:44:46;23.20;;;10.33;;
18693;SDS011;9477;51.414;10.362;2023-04-15T11:46:51;18.33;;;9.57;;
18693;SDS011;9477;51.414;10.362;2023-04-15T11:48:53;11.60;;;7.30;;
18693;SDS011;9477;51.414;10.362;2023-04-15T11:50:57;29.17;;;8.57;;
18693;SDS011;9477;51.414;10.362;2023-04-15T11:53:02;28.17;;;9.97;;
18693;SDS011;9477;51.414;10.362;2023-04-15T11:55:08;27.37;;;8.80;;
18693;SDS011;9477;51.414;10.362;2023-04-15T11:57:11;20.77;;;9.83;;
18693;SDS011;9477;51.414;10.362;2023-04-15T11:59:20;22.07;;;8.03;;
18693;SDS011;9477;51.414;10.362;2023-04-15T12:01:31;25.73;;;11.53;;
18693;SDS011;9477;51.414;10.362;2023-04-15T12:03:35;20.37;;;10.33;;
18693;SDS011;9477;51.414;10.362;2023-04-15T12:08:05;15.50;;;9.17;;
18693;SDS011;9477;51.414;10.362;2023-04-15T12:10:11;28.37;;;11.77;;
18693;SDS011;9477;51.414;10.362;2023-04-15T12:12:14;23.57;;;10.47;;
18693;SDS011;9477;51.414;10.362;2023-04-15T12:14:32;11.40;;;7.73;;
18693;SDS011;9477;51.414;10.362;2023-04-15T12:16:38;15.90;;;9.20;;
18693;SDS011;9477;51.414;10.362;2023-04-15T12:18:50;24.07;;;12.60;;